CNZ6 weather

Georgetown (Georgetown & District Hospital) Heliport
Georgetown, Ontario, Canada

Public forecast

Using degrees Celsius for public forecast. Weather courtesy of forecast.io.

Closest aviation weather report (METAR) to Georgetown (Georgetown & District Hospital) Heliport

Closest report is Lester B. Pearson International Airport, 13.3 nm (24.7 km) E. Retrieved 2020/05/27 14:00 UTC (25 minutes ago):

CYYZ 271400Z 14007KT 15SM FEW180 BKN230 26/18 A3008 RMK AC1CI6 SLP184 DENSITY ALT 1800FT

Closest aviation forecast (TAF) to Georgetown (Georgetown & District Hospital) Heliport

Closest forecast is Lester B. Pearson International Airport, 13.3 nm (24.7 km) E. Retrieved 2020/05/27 15:42 UTC (0 seconds ago):

TAF CYYZ 271438Z 2715/2818 16008KT P6SM FEW160 BKN220 BECMG 2717/2719 16015KT BECMG 2723/2801 14008KT FM280900 14008KT P6SM SCT060 BKN150 FM281200 15012KT P6SM BKN060 OVC100 TEMPO 2812/2818 P6SM -SHRA BKN040 OVC060 RMK NXT FCST BY 271800Z